Time;durP1;ratioP1;P1;durP2;ratioP2;P2;SDS_P1;SDS_P2;PMS_P1;PMS_P2;Temp;Humidity;BMP_temperature;BMP_pressure;BME280_temperature;BME280_humidity;BME280_pressure;Samples;Min_cycle;Max_cycle;Signal;HPM_P1;HPM_P2
2021/12/05 00:21:37;;;;;;;5.13;0.98;;;;;;;;;;4992625;28;20097;-68
2021/12/05 00:23:46;;;;;;;6.60;1.23;;;;;;;;;;4990847;28;20093;-68
2021/12/05 00:26:17;;;;;;;4.50;1.00;;;;;;;;;;4993786;28;20073;-68
2021/12/05 00:31:48;;;;;;;4.95;1.17;;;;;;;;;;4993764;28;20050;-68
2021/12/05 00:34:33;;;;;;;10.25;1.73;;;;;;;;;;4993875;28;20065;-67
2021/12/05 01:14:32;;;;;;;4.80;1.33;;;;;;;;;;4992975;28;20458;-69
2021/12/05 01:16:59;;;;;;;5.43;1.45;;;;;;;;;;4993033;28;20120;-67
2021/12/05 01:19:28;;;;;;;6.88;1.23;;;;;;;;;;4992535;28;20486;-67
2021/12/05 01:21:56;;;;;;;7.50;1.38;;;;;;;;;;4992741;28;20042;-67
2021/12/05 01:24:54;;;;;;;3.72;1.20;;;;;;;;;;4992637;28;20078;-67
2021/12/05 01:27:35;;;;;;;7.05;1.42;;;;;;;;;;5007934;28;20450;-67
2021/12/05 01:30:11;;;;;;;4.65;0.82;;;;;;;;;;4992552;28;20042;-69
2021/12/05 01:35:30;;;;;;;6.47;1.27;;;;;;;;;;4992403;28;20105;-67
2021/12/05 02:01:21;;;;;;;3.35;1.15;;;;;;;;;;4992253;28;20526;-68
2021/12/05 02:34:41;;;;;;;4.50;0.93;;;;;;;;;;4974886;28;20078;-68
2021/12/05 02:44:55;;;;;;;8.88;1.52;;;;;;;;;;4995596;28;20054;-67
2021/12/05 02:47:24;;;;;;;6.03;1.25;;;;;;;;;;4995857;28;20100;-67
2021/12/05 02:49:52;;;;;;;7.43;0.90;;;;;;;;;;5010463;28;20089;-67
2021/12/05 02:52:23;;;;;;;;;;;;;;;;;;4996025;28;20414;-68
2021/12/05 02:54:52;;;;;;;7.35;0.90;;;;;;;;;;4995638;28;19979;-67
2021/12/05 02:57:26;;;;;;;5.38;0.73;;;;;;;;;;4995283;28;20058;-67
2021/12/05 02:59:57;;;;;;;7.20;1.10;;;;;;;;;;4995487;28;20125;-67
2021/12/05 03:02:37;;;;;;;4.68;0.98;;;;;;;;;;4995607;28;20128;-67
2021/12/05 03:05:07;;;;;;;6.43;1.30;;;;;;;;;;4995490;28;20050;-67
2021/12/05 03:07:39;;;;;;;6.28;1.10;;;;;;;;;;4995170;28;20069;-67
2021/12/05 03:10:06;;;;;;;6.00;0.88;;;;;;;;;;4995014;28;20050;-68
2021/12/05 03:12:35;;;;;;;8.43;1.42;;;;;;;;;;4995390;28;20042;-67
2021/12/05 03:15:06;;;;;;;7.05;0.98;;;;;;;;;;4995014;28;20054;-67
2021/12/05 03:17:33;;;;;;;5.50;1.35;;;;;;;;;;4994948;28;20616;-68
2021/12/05 03:20:04;;;;;;;6.50;1.30;;;;;;;;;;4994891;28;20047;-67
2021/12/05 03:22:31;;;;;;;7.80;1.08;;;;;;;;;;4994832;28;20077;-67
2021/12/05 03:24:58;;;;;;;6.15;1.40;;;;;;;;;;4995111;28;20051;-67
2021/12/05 03:27:24;;;;;;;9.18;1.20;;;;;;;;;;4994759;28;20450;-67
2021/12/05 03:29:51;;;;;;;3.72;0.85;;;;;;;;;;4994264;28;20062;-67
2021/12/05 03:32:17;;;;;;;7.95;1.55;;;;;;;;;;4994908;28;20054;-67
2021/12/05 03:34:44;;;;;;;4.25;1.40;;;;;;;;;;4994676;28;20058;-67
2021/12/05 03:37:11;;;;;;;7.25;1.13;;;;;;;;;;4994945;28;20105;-68
2021/12/05 03:39:37;;;;;;;7.85;1.10;;;;;;;;;;4994799;28;20054;-67
2021/12/05 03:42:04;;;;;;;5.47;0.90;;;;;;;;;;4994501;28;20050;-67
2021/12/05 03:44:32;;;;;;;6.40;1.55;;;;;;;;;;4994462;28;20391;-67
2021/12/05 03:47:00;;;;;;;3.88;0.93;;;;;;;;;;4994680;28;20101;-68
2021/12/05 03:49:28;;;;;;;13.47;1.87;;;;;;;;;;4994511;28;20120;-68
2021/12/05 03:51:54;;;;;;;;;;;;;;;;;;4995079;28;20109;-67
2021/12/05 03:54:21;;;;;;;3.28;1.15;;;;;;;;;;4994342;28;19926;-68
2021/12/05 03:56:47;;;;;;;3.38;0.77;;;;;;;;;;4994013;28;20054;-67
2021/12/05 03:59:14;;;;;;;6.57;0.80;;;;;;;;;;4994165;28;20648;-67
2021/12/05 04:01:41;;;;;;;4.47;1.05;;;;;;;;;;4994189;28;20046;-67
2021/12/05 04:04:08;;;;;;;3.75;0.73;;;;;;;;;;4994144;28;20502;-67
2021/12/05 04:06:35;;;;;;;4.35;0.95;;;;;;;;;;4994202;28;20046;-67
2021/12/05 04:09:03;;;;;;;5.10;1.23;;;;;;;;;;4994389;28;20100;-67
2021/12/05 04:11:36;;;;;;;5.28;0.55;;;;;;;;;;4993960;28;20054;-67
2021/12/05 04:14:04;;;;;;;4.53;0.73;;;;;;;;;;4994610;28;20046;-67
2021/12/05 04:16:31;;;;;;;;;;;;;;;;;;4994320;28;20483;-67
2021/12/05 04:18:57;;;;;;;2.88;0.50;;;;;;;;;;4993975;28;20289;-67
2021/12/05 04:21:24;;;;;;;1.38;0.30;;;;;;;;;;4993894;28;20121;-67
2021/12/05 04:23:50;;;;;;;5.45;0.77;;;;;;;;;;4993951;28;20050;-67
2021/12/05 04:26:18;;;;;;;3.77;0.30;;;;;;;;;;4994093;28;20137;-67
2021/12/05 04:28:46;;;;;;;2.78;0.40;;;;;;;;;;4993828;28;20354;-67
2021/12/05 04:31:13;;;;;;;;;;;;;;;;;;4994314;28;20462;-67
2021/12/05 04:33:40;;;;;;;3.67;0.30;;;;;;;;;;4993854;28;19921;-67
2021/12/05 04:36:06;;;;;;;0.95;0.30;;;;;;;;;;4993651;28;20088;-67
2021/12/05 04:38:33;;;;;;;2.05;0.30;;;;;;;;;;4993642;28;20058;-67
2021/12/05 04:41:01;;;;;;;4.65;0.47;;;;;;;;;;4992558;28;20046;-67
2021/12/05 04:43:27;;;;;;;3.45;0.40;;;;;;;;;;4993460;28;20097;-67
2021/12/05 04:45:53;;;;;;;1.33;0.43;;;;;;;;;;4993475;28;20046;-67
2021/12/05 04:48:20;;;;;;;4.53;0.50;;;;;;;;;;4993261;28;20129;-67
2021/12/05 04:50:47;;;;;;;2.22;0.40;;;;;;;;;;4993317;28;20775;-67
2021/12/05 04:53:13;;;;;;;1.85;0.35;;;;;;;;;;4993112;28;20050;-68
2021/12/05 04:55:40;;;;;;;2.88;0.30;;;;;;;;;;4993199;28;20054;-67
2021/12/05 04:58:06;;;;;;;2.30;0.55;;;;;;;;;;4993020;28;20043;-67
2021/12/05 05:00:36;;;;;;;2.38;0.30;;;;;;;;;;4993209;28;20050;-67
2021/12/05 05:03:03;;;;;;;0.43;0.10;;;;;;;;;;4993072;28;20108;-67
2021/12/05 05:05:30;;;;;;;1.15;0.22;;;;;;;;;;4993001;28;20060;-68
2021/12/05 05:07:57;;;;;;;1.92;0.52;;;;;;;;;;4993271;28;20526;-68
2021/12/05 05:10:25;;;;;;;1.05;0.20;;;;;;;;;;4993117;28;20050;-68
2021/12/05 05:12:52;;;;;;;1.88;0.22;;;;;;;;;;4993138;28;20058;-67
2021/12/05 05:15:22;;;;;;;2.38;0.30;;;;;;;;;;4993047;28;20061;-67
2021/12/05 05:17:51;;;;;;;3.70;0.43;;;;;;;;;;4993311;28;20062;-67
2021/12/05 05:20:25;;;;;;;1.55;0.47;;;;;;;;;;4992543;28;20509;-67
2021/12/05 05:38:59;;;;;;;3.00;0.45;;;;;;;;;;4992790;28;20054;-67
2021/12/05 05:44:34;;;;;;;3.33;0.73;;;;;;;;;;4992406;28;20046;-67
2021/12/05 05:47:40;;;;;;;4.38;0.60;;;;;;;;;;4992452;28;20054;-67
2021/12/05 05:49:59;;;;;;;4.78;1.00;;;;;;;;;;4991186;28;20116;-67
2021/12/05 05:52:26;;;;;;;3.30;1.15;;;;;;;;;;4992218;28;20054;-68
2021/12/05 05:54:56;;;;;;;6.00;1.75;;;;;;;;;;4992537;28;20441;-67
2021/12/05 06:00:16;;;;;;;2.40;0.65;;;;;;;;;;4992382;28;20050;-67
2021/12/05 06:05:26;;;;;;;4.45;0.75;;;;;;;;;;4992287;28;20043;-67
2021/12/05 06:07:52;;;;;;;2.67;0.73;;;;;;;;;;4992198;28;20046;-67
2021/12/05 06:10:20;;;;;;;2.17;0.40;;;;;;;;;;5007097;28;20058;-67
2021/12/05 06:12:47;;;;;;;;;;;;;;;;;;4992970;28;20410;-67
2021/12/05 06:15:15;;;;;;;3.25;0.38;;;;;;;;;;4991116;28;19972;-67
2021/12/05 06:17:42;;;;;;;3.75;0.60;;;;;;;;;;4992395;28;20050;-67
2021/12/05 06:20:09;;;;;;;2.55;0.52;;;;;;;;;;4992058;28;20443;-67
2021/12/05 06:22:35;;;;;;;1.23;0.55;;;;;;;;;;4992058;28;20105;-67
2021/12/05 06:25:07;;;;;;;3.13;0.47;;;;;;;;;;4993017;28;20101;-67
2021/12/05 06:27:33;;;;;;;3.35;0.45;;;;;;;;;;4992223;28;20050;-67
2021/12/05 06:46:30;;;;;;;2.33;0.50;;;;;;;;;;4991710;28;20073;-67
2021/12/05 06:48:56;;;;;;;3.55;0.50;;;;;;;;;;4991878;28;20050;-67
2021/12/05 06:51:24;;;;;;;2.10;0.30;;;;;;;;;;4991730;28;20418;-68
2021/12/05 06:53:52;;;;;;;3.40;0.38;;;;;;;;;;4991943;28;20062;-67
2021/12/05 06:56:18;;;;;;;2.17;0.47;;;;;;;;;;4991529;28;20062;-67
2021/12/05 06:58:45;;;;;;;3.38;0.60;;;;;;;;;;4991908;28;20364;-68
2021/12/05 07:01:12;;;;;;;1.60;0.47;;;;;;;;;;4991742;28;20491;-67
2021/12/05 07:03:42;;;;;;;4.57;0.60;;;;;;;;;;4992371;28;20085;-67
2021/12/05 07:06:11;;;;;;;3.97;1.20;;;;;;;;;;4995251;28;20120;-68
2021/12/05 07:08:41;;;;;;;3.38;0.80;;;;;;;;;;4995409;28;20050;-67
2021/12/05 07:16:26;;;;;;;1.70;0.55;;;;;;;;;;4995047;28;20081;-67
2021/12/05 07:24:28;;;;;;;2.45;0.60;;;;;;;;;;4995142;28;20046;-67
2021/12/05 07:42:47;;;;;;;1.77;0.30;;;;;;;;;;4994679;28;20042;-68
2021/12/05 07:45:19;;;;;;;2.60;0.70;;;;;;;;;;4994527;28;20050;-68
2021/12/05 07:47:49;;;;;;;0.80;0.40;;;;;;;;;;4994572;28;20113;-67
2021/12/05 07:50:16;;;;;;;3.00;0.47;;;;;;;;;;4994454;28;20046;-67
2021/12/05 07:52:46;;;;;;;2.65;0.30;;;;;;;;;;4994446;28;20061;-67
2021/12/05 08:00:42;;;;;;;4.38;1.27;;;;;;;;;;4994178;28;20042;-67
2021/12/05 08:14:27;;;;;;;1.98;0.80;;;;;;;;;;4994386;28;20108;-67
2021/12/05 08:16:55;;;;;;;4.13;0.80;;;;;;;;;;4993923;28;20050;-67
2021/12/05 08:19:21;;;;;;;1.48;0.35;;;;;;;;;;4994058;28;20046;-67
2021/12/05 08:21:55;;;;;;;1.85;0.90;;;;;;;;;;4994108;28;20054;-67
2021/12/05 08:24:26;;;;;;;3.33;1.35;;;;;;;;;;4992602;28;20050;-67
2021/12/05 08:26:53;;;;;;;2.70;1.23;;;;;;;;;;4993785;28;20113;-67
2021/12/05 08:29:29;;;;;;;0.95;0.40;;;;;;;;;;4983905;28;20059;-68
2021/12/05 09:30:54;;;;;;;2.22;0.73;;;;;;;;;;4992356;28;20104;-68
2021/12/05 10:07:02;;;;;;;2.30;0.50;;;;;;;;;;4992087;28;20042;-68
2021/12/05 10:09:49;;;;;;;1.83;0.68;;;;;;;;;;4991781;28;20093;-68
2021/12/05 10:15:37;;;;;;;1.33;0.47;;;;;;;;;;4992480;28;20074;-68
2021/12/05 10:37:17;;;;;;;5.43;0.63;;;;;;;;;;4992057;28;20061;-68
2021/12/05 10:39:43;;;;;;;3.58;0.57;;;;;;;;;;4993838;28;20449;-68
2021/12/05 10:42:34;;;;;;;2.85;0.70;;;;;;;;;;4995815;28;20089;-67
2021/12/05 10:45:00;;;;;;;1.38;0.60;;;;;;;;;;4995860;28;20050;-67
2021/12/05 10:47:37;;;;;;;2.60;0.60;;;;;;;;;;4995479;28;20502;-67
2021/12/05 10:50:22;;;;;;;3.70;0.60;;;;;;;;;;4993699;28;20498;-68
2021/12/05 10:53:08;;;;;;;3.72;0.73;;;;;;;;;;5010110;28;20070;-68
2021/12/05 10:55:35;;;;;;;3.70;0.77;;;;;;;;;;4994873;28;20058;-68
2021/12/05 10:58:05;;;;;;;1.73;0.57;;;;;;;;;;4995577;28;20062;-68
2021/12/05 11:00:31;;;;;;;3.55;1.08;;;;;;;;;;4995231;28;20101;-68
2021/12/05 11:03:15;;;;;;;2.47;0.63;;;;;;;;;;4985121;28;20045;-70
2021/12/05 11:05:42;;;;;;;12.23;9.90;;;;;;;;;;4975734;28;20101;-67
2021/12/05 11:08:27;;;;;;;3.70;2.78;;;;;;;;;;4991768;28;20458;-69
2021/12/05 11:11:05;;;;;;;4.72;3.67;;;;;;;;;;4998350;28;20499;-69
2021/12/05 11:13:31;;;;;;;;;;;;;;;;;;4979686;28;20050;-68
2021/12/05 11:15:58;;;;;;;2.63;0.70;;;;;;;;;;4995465;28;19921;-70
2021/12/05 11:18:41;;;;;;;3.45;1.00;;;;;;;;;;4994904;28;20572;-71
2021/12/05 11:21:32;;;;;;;5.68;4.30;;;;;;;;;;4995344;28;20050;-70
2021/12/05 11:24:05;;;;;;;6.75;4.15;;;;;;;;;;4994972;28;20096;-70
2021/12/05 11:26:33;;;;;;;10.88;6.00;;;;;;;;;;4994929;28;20097;-69
2021/12/05 11:28:59;;;;;;;9.63;5.25;;;;;;;;;;4995075;28;20045;-70
2021/12/05 11:31:27;;;;;;;15.60;13.98;;;;;;;;;;4994756;28;20576;-71
2021/12/05 11:33:55;;;;;;;6.78;6.18;;;;;;;;;;4994623;28;20046;-71
2021/12/05 11:36:30;;;;;;;4.43;3.63;;;;;;;;;;4993938;28;20050;-70
2021/12/05 11:38:57;;;;;;;4.78;2.72;;;;;;;;;;4975028;28;20105;-71
2021/12/05 11:41:23;;;;;;;6.13;3.58;;;;;;;;;;4994325;28;20054;-70
2021/12/05 11:43:52;;;;;;;4.28;1.88;;;;;;;;;;4994719;28;20054;-70
2021/12/05 11:46:20;;;;;;;5.20;2.70;;;;;;;;;;4994365;28;20050;-71
2021/12/05 11:48:49;;;;;;;2.08;1.60;;;;;;;;;;4994457;28;20558;-72
2021/12/05 11:51:36;;;;;;;3.00;1.05;;;;;;;;;;5009011;28;20050;-70
2021/12/05 11:54:11;;;;;;;3.37;1.07;;;;;;;;;;4994319;28;20054;-70
2021/12/05 11:56:44;;;;;;;1.83;1.05;;;;;;;;;;4994205;28;20058;-71
2021/12/05 11:59:22;;;;;;;6.82;2.83;;;;;;;;;;4994552;28;20054;-69
2021/12/05 12:01:48;;;;;;;3.45;1.60;;;;;;;;;;4994102;28;20490;-67
2021/12/05 12:04:18;;;;;;;5.78;2.47;;;;;;;;;;4994111;28;20046;-70
2021/12/05 12:06:45;;;;;;;8.00;1.90;;;;;;;;;;4993994;28;20093;-70
2021/12/05 12:09:12;;;;;;;;;;;;;;;;;;4994813;28;20053;-70
2021/12/05 12:11:39;;;;;;;4.20;1.75;;;;;;;;;;4993976;28;20444;-76
2021/12/05 12:14:05;;;;;;;2.60;1.40;;;;;;;;;;4993978;28;20100;-72
2021/12/05 12:16:33;;;;;;;4.07;1.77;;;;;;;;;;4993985;28;20502;-71
2021/12/05 12:19:02;;;;;;;6.82;1.95;;;;;;;;;;5008975;28;20055;-70
2021/12/05 12:21:38;;;;;;;3.58;1.33;;;;;;;;;;4993764;28;20066;-71
2021/12/05 12:24:05;;;;;;;5.30;2.63;;;;;;;;;;4993965;28;20050;-73
2021/12/05 12:26:32;;;;;;;3.47;1.00;;;;;;;;;;4993900;28;20050;-73
2021/12/05 12:28:59;;;;;;;2.30;0.90;;;;;;;;;;4993907;28;20466;-70
2021/12/05 12:31:31;;;;;;;2.17;0.70;;;;;;;;;;4993608;28;20050;-72
2021/12/05 12:34:00;;;;;;;4.25;0.60;;;;;;;;;;5008865;28;20043;-72
2021/12/05 12:36:49;;;;;;;5.47;3.20;;;;;;;;;;4993850;28;20046;-70
2021/12/05 12:39:15;;;;;;;17.25;10.10;;;;;;;;;;4978608;28;20458;-71
2021/12/05 12:42:01;;;;;;;15.20;9.27;;;;;;;;;;4993621;28;20050;-71
2021/12/05 12:44:28;;;;;;;21.02;11.80;;;;;;;;;;4993345;28;20077;-70
2021/12/05 12:47:01;;;;;;;4.95;3.63;;;;;;;;;;4993614;28;20050;-71
2021/12/05 12:49:30;;;;;;;5.63;3.03;;;;;;;;;;4993799;28;20050;-72
2021/12/05 12:52:02;;;;;;;4.85;2.53;;;;;;;;;;4993571;28;20487;-73
2021/12/05 12:54:37;;;;;;;7.10;3.08;;;;;;;;;;4993355;28;20054;-73
2021/12/05 12:57:15;;;;;;;15.48;10.48;;;;;;;;;;4991644;28;20578;-73
2021/12/05 12:59:44;;;;;;;5.20;3.53;;;;;;;;;;4993294;28;20050;-72
2021/12/05 13:02:29;;;;;;;6.18;3.72;;;;;;;;;;4992640;28;20046;-72
2021/12/05 13:05:05;;;;;;;4.95;2.28;;;;;;;;;;4993629;28;20058;-73
2021/12/05 13:10:26;;;;;;;3.55;1.02;;;;;;;;;;4993027;28;20042;-72
2021/12/05 13:12:59;;;;;;;5.35;1.40;;;;;;;;;;4992991;28;20442;-73
2021/12/05 13:15:31;;;;;;;4.80;1.38;;;;;;;;;;4992836;28;20105;-71
2021/12/05 13:18:20;;;;;;;3.13;1.08;;;;;;;;;;4993151;28;20058;-72
2021/12/05 13:20:54;;;;;;;3.85;0.90;;;;;;;;;;4993772;28;20491;-72
2021/12/05 13:23:21;;;;;;;5.10;1.50;;;;;;;;;;4992528;28;20552;-71
2021/12/05 13:25:59;;;;;;;7.82;2.75;;;;;;;;;;4992287;28;20297;-72
2021/12/05 13:28:30;;;;;;;6.22;2.28;;;;;;;;;;4990761;28;20125;-72
2021/12/05 13:30:57;;;;;;;7.07;2.20;;;;;;;;;;4991042;28;20471;-72
2021/12/05 13:33:25;;;;;;;9.02;2.20;;;;;;;;;;5007640;28;20588;-72
2021/12/05 13:35:57;;;;;;;8.95;3.47;;;;;;;;;;4992751;28;20065;-73
2021/12/05 13:38:32;;;;;;;5.13;2.08;;;;;;;;;;5007799;28;20058;-72
2021/12/05 13:41:09;;;;;;;2.63;1.30;;;;;;;;;;4992567;28;20054;-72
2021/12/05 13:43:36;;;;;;;4.03;1.93;;;;;;;;;;4992108;28;20050;-72
2021/12/05 13:46:22;;;;;;;4.88;1.90;;;;;;;;;;4992587;28;20097;-72
2021/12/05 13:48:49;;;;;;;3.13;1.30;;;;;;;;;;4992383;28;20046;-72
2021/12/05 13:51:22;;;;;;;4.32;1.42;;;;;;;;;;4992337;28;20050;-72
2021/12/05 13:53:51;;;;;;;4.43;1.15;;;;;;;;;;4992686;28;20190;-72
2021/12/05 13:56:24;;;;;;;2.60;1.20;;;;;;;;;;5007086;28;20062;-72
2021/12/05 13:58:56;;;;;;;4.90;1.52;;;;;;;;;;4992532;28;20046;-72
2021/12/05 14:01:34;;;;;;;2.88;1.00;;;;;;;;;;4991924;28;20065;-72
2021/12/05 14:04:05;;;;;;;3.47;1.25;;;;;;;;;;4991200;28;20058;-72
2021/12/05 14:06:33;;;;;;;4.18;1.30;;;;;;;;;;4992242;28;20054;-72
2021/12/05 14:09:03;;;;;;;3.75;1.27;;;;;;;;;;4992541;28;20054;-72
2021/12/05 14:11:29;;;;;;;1.20;0.80;;;;;;;;;;4992310;28;20101;-71
2021/12/05 14:13:56;;;;;;;3.45;1.02;;;;;;;;;;4995109;28;20050;-72
2021/12/05 14:16:29;;;;;;;4.15;1.00;;;;;;;;;;4995246;28;20113;-72
2021/12/05 14:18:55;;;;;;;1.65;0.80;;;;;;;;;;4996438;28;20474;-72
2021/12/05 14:21:23;;;;;;;2.58;1.27;;;;;;;;;;4996335;28;20042;-72
2021/12/05 14:23:50;;;;;;;3.42;0.88;;;;;;;;;;4994748;28;20376;-71
2021/12/05 14:26:17;;;;;;;4.90;0.93;;;;;;;;;;4995772;28;20050;-72
2021/12/05 14:28:53;;;;;;;1.38;0.57;;;;;;;;;;4995983;28;20552;-70
2021/12/05 14:31:33;;;;;;;2.17;0.52;;;;;;;;;;4995843;28;20438;-72
2021/12/05 14:34:00;;;;;;;2.90;0.50;;;;;;;;;;4996012;28;20152;-72
2021/12/05 14:36:28;;;;;;;2.08;0.60;;;;;;;;;;4995645;28;20414;-71
2021/12/05 14:39:05;;;;;;;2.33;1.00;;;;;;;;;;4996000;28;20473;-72
2021/12/05 14:41:32;;;;;;;5.20;1.42;;;;;;;;;;4995623;28;20553;-72
2021/12/05 14:43:59;;;;;;;3.72;1.50;;;;;;;;;;4995922;28;20124;-70
2021/12/05 14:46:26;;;;;;;1.58;0.95;;;;;;;;;;4995696;28;20046;-70
2021/12/05 14:49:01;;;;;;;4.57;2.75;;;;;;;;;;4995612;28;20047;-73
2021/12/05 14:51:33;;;;;;;3.53;1.52;;;;;;;;;;4995558;28;20050;-69
2021/12/05 14:53:59;;;;;;;4.82;2.28;;;;;;;;;;4995508;28;20100;-72
2021/12/05 14:56:26;;;;;;;6.45;3.17;;;;;;;;;;4995323;28;20112;-70
2021/12/05 14:59:09;;;;;;;8.30;3.30;;;;;;;;;;4995808;28;20387;-70
2021/12/05 15:01:36;;;;;;;;;;;;;;;;;;4995970;28;20433;-70
2021/12/05 15:04:04;;;;;;;5.20;1.80;;;;;;;;;;4995382;28;19922;-73
2021/12/05 15:06:39;;;;;;;1.20;1.05;;;;;;;;;;4992958;28;20046;-71
2021/12/05 15:09:16;;;;;;;3.53;0.90;;;;;;;;;;4995298;28;20046;-69
2021/12/05 15:11:50;;;;;;;3.20;1.40;;;;;;;;;;4995484;28;20055;-71
2021/12/05 15:14:17;;;;;;;4.03;1.27;;;;;;;;;;4995376;28;20050;-70
2021/12/05 15:17:03;;;;;;;5.40;1.25;;;;;;;;;;5006996;28;20047;-73
2021/12/05 15:19:30;;;;;;;5.47;0.90;;;;;;;;;;4986989;28;20133;-72
2021/12/05 15:21:57;;;;;;;3.20;1.08;;;;;;;;;;4994938;28;20046;-70
2021/12/05 15:24:27;;;;;;;3.70;1.08;;;;;;;;;;4992957;28;20094;-72
2021/12/05 15:26:55;;;;;;;3.70;1.05;;;;;;;;;;5010176;28;20410;-72
2021/12/05 15:29:22;;;;;;;4.18;1.40;;;;;;;;;;4995100;28;20470;-72
2021/12/05 15:32:14;;;;;;;3.83;1.13;;;;;;;;;;4994701;28;20137;-72
2021/12/05 15:34:51;;;;;;;6.82;1.45;;;;;;;;;;4995306;28;20058;-72
2021/12/05 15:37:17;;;;;;;5.50;1.27;;;;;;;;;;4994873;28;20046;-72
2021/12/05 15:39:45;;;;;;;2.97;1.50;;;;;;;;;;4994679;28;20058;-72
2021/12/05 15:42:22;;;;;;;4.38;2.72;;;;;;;;;;4994830;28;20072;-70
2021/12/05 15:44:49;;;;;;;3.88;1.85;;;;;;;;;;4986667;28;20050;-71
2021/12/05 15:47:16;;;;;;;;;;;;;;;;;;4994476;28;20050;-69
2021/12/05 15:49:48;;;;;;;3.38;1.60;;;;;;;;;;4994000;28;19925;-68
2021/12/05 15:52:15;;;;;;;3.95;1.75;;;;;;;;;;4994769;28;20062;-70
2021/12/05 15:54:42;;;;;;;2.58;1.65;;;;;;;;;;4994320;28;20080;-71
2021/12/05 15:57:15;;;;;;;4.40;1.87;;;;;;;;;;4994306;28;20050;-71
2021/12/05 15:59:46;;;;;;;3.53;2.05;;;;;;;;;;4994282;28;20302;-72
2021/12/05 16:02:17;;;;;;;3.78;2.40;;;;;;;;;;4990772;28;20097;-71
2021/12/05 16:04:44;;;;;;;4.07;1.75;;;;;;;;;;4994570;28;20129;-72
2021/12/05 16:07:11;;;;;;;5.70;2.88;;;;;;;;;;4994033;28;20517;-73
2021/12/05 16:09:38;;;;;;;7.70;3.00;;;;;;;;;;4994389;28;20093;-72
2021/12/05 16:12:11;;;;;;;3.72;2.30;;;;;;;;;;4986557;28;20454;-71
2021/12/05 16:14:41;;;;;;;4.30;2.40;;;;;;;;;;4989115;28;20054;-72
2021/12/05 16:17:15;;;;;;;8.27;3.58;;;;;;;;;;4994299;28;20097;-73
2021/12/05 16:20:01;;;;;;;5.93;3.35;;;;;;;;;;4993916;28;20414;-70
2021/12/05 16:22:28;;;;;;;4.57;2.50;;;;;;;;;;4993245;28;20057;-70
2021/12/05 16:24:55;;;;;;;6.35;2.63;;;;;;;;;;4991011;28;20054;-71
2021/12/05 16:27:21;;;;;;;2.97;1.65;;;;;;;;;;4992835;28;20050;-71
2021/12/05 16:29:48;;;;;;;5.60;2.00;;;;;;;;;;4993670;28;20050;-71
2021/12/05 16:32:14;;;;;;;3.75;2.08;;;;;;;;;;4993889;28;20050;-72
2021/12/05 16:34:46;;;;;;;5.20;2.45;;;;;;;;;;4993816;28;20112;-71
2021/12/05 16:37:14;;;;;;;3.47;1.58;;;;;;;;;;4992621;28;20054;-70
2021/12/05 16:39:45;;;;;;;5.55;1.65;;;;;;;;;;4991329;28;20105;-70
2021/12/05 16:42:14;;;;;;;3.45;1.63;;;;;;;;;;4988981;28;20043;-72
2021/12/05 16:44:48;;;;;;;5.70;2.20;;;;;;;;;;4993216;28;20406;-69
2021/12/05 16:47:17;;;;;;;2.67;1.30;;;;;;;;;;4993069;28;20264;-70
2021/12/05 16:49:49;;;;;;;6.95;2.08;;;;;;;;;;4993276;28;20490;-71
2021/12/05 16:52:20;;;;;;;5.00;2.10;;;;;;;;;;4993398;28;20050;-71
2021/12/05 16:55:22;;;;;;;9.95;2.90;;;;;;;;;;5006135;28;20498;-72
2021/12/05 16:57:57;;;;;;;14.88;6.13;;;;;;;;;;4985011;28;20132;-71
2021/12/05 17:00:26;;;;;;;8.30;2.90;;;;;;;;;;4993192;28;20544;-71
2021/12/05 17:02:54;;;;;;;7.63;3.38;;;;;;;;;;4993327;28;20050;-71
2021/12/05 17:05:35;;;;;;;5.10;2.28;;;;;;;;;;4993077;28;20372;-71
2021/12/05 17:08:10;;;;;;;5.25;2.50;;;;;;;;;;4993388;28;20438;-71
2021/12/05 17:10:36;;;;;;;3.15;1.83;;;;;;;;;;4993148;28;20116;-70
2021/12/05 17:13:12;;;;;;;4.53;1.38;;;;;;;;;;4992945;28;20050;-71
2021/12/05 17:15:48;;;;;;;3.45;2.00;;;;;;;;;;4992928;28;20054;-71
2021/12/05 17:18:37;;;;;;;3.97;1.83;;;;;;;;;;4992793;28;20057;-72
2021/12/05 17:21:04;;;;;;;4.60;1.58;;;;;;;;;;4982994;28;20494;-71
2021/12/05 17:23:33;;;;;;;3.25;1.50;;;;;;;;;;4992622;28;20105;-71
2021/12/05 17:26:13;;;;;;;3.83;1.20;;;;;;;;;;4992641;28;20056;-72
2021/12/05 17:28:45;;;;;;;2.47;1.05;;;;;;;;;;4992933;28;20054;-72
2021/12/05 17:31:12;;;;;;;5.13;1.48;;;;;;;;;;4992976;28;20046;-72
2021/12/05 17:33:50;;;;;;;3.22;0.82;;;;;;;;;;4991166;28;20054;-72
2021/12/05 17:36:16;;;;;;;3.75;1.10;;;;;;;;;;5000982;28;20046;-73
2021/12/05 17:38:43;;;;;;;2.45;1.10;;;;;;;;;;4972775;28;20051;-71
2021/12/05 17:41:09;;;;;;;3.40;0.93;;;;;;;;;;4983484;28;20038;-70
2021/12/05 17:43:36;;;;;;;4.72;1.45;;;;;;;;;;4992415;28;20057;-71
2021/12/05 17:46:03;;;;;;;5.60;1.52;;;;;;;;;;4992449;28;20046;-71
2021/12/05 17:48:29;;;;;;;3.85;1.17;;;;;;;;;;4992380;28;20117;-71
2021/12/05 17:50:57;;;;;;;3.63;1.42;;;;;;;;;;4992337;28;20054;-70
2021/12/05 17:53:28;;;;;;;3.47;1.13;;;;;;;;;;4991328;28;20042;-70
2021/12/05 17:56:04;;;;;;;6.45;1.60;;;;;;;;;;4992335;28;20137;-72
2021/12/05 18:03:57;;;;;;;6.68;1.80;;;;;;;;;;4992157;28;20116;-73
2021/12/05 18:06:23;;;;;;;21.95;11.32;;;;;;;;;;4992366;28;20104;-70
2021/12/05 18:08:50;;;;;;;11.10;6.60;;;;;;;;;;4992118;28;20113;-73
2021/12/05 18:11:22;;;;;;;8.45;5.53;;;;;;;;;;4992404;28;20058;-71
2021/12/05 18:13:53;;;;;;;8.77;4.88;;;;;;;;;;4979112;28;20466;-71
2021/12/05 18:16:24;;;;;;;7.97;3.75;;;;;;;;;;4978880;28;20128;-71
2021/12/05 18:18:55;;;;;;;8.50;4.75;;;;;;;;;;4992362;28;20066;-71
2021/12/05 18:21:23;;;;;;;17.83;12.88;;;;;;;;;;4991955;28;20092;-71
2021/12/05 18:23:49;;;;;;;7.95;7.13;;;;;;;;;;4991919;28;20050;-71
2021/12/05 18:26:16;;;;;;;4.40;2.72;;;;;;;;;;4992165;28;20046;-74
2021/12/05 18:28:46;;;;;;;7.22;3.33;;;;;;;;;;4992296;28;20054;-72
2021/12/05 18:31:17;;;;;;;5.07;2.95;;;;;;;;;;4993296;28;20042;-71
2021/12/05 18:33:44;;;;;;;7.25;3.47;;;;;;;;;;4986152;28;20046;-71
2021/12/05 18:36:10;;;;;;;5.40;2.10;;;;;;;;;;5001297;28;20470;-71
2021/12/05 18:38:38;;;;;;;5.05;2.30;;;;;;;;;;4989159;28;20055;-72
2021/12/05 18:41:09;;;;;;;9.52;5.55;;;;;;;;;;4983337;28;20097;-71
2021/12/05 18:43:38;;;;;;;6.25;3.95;;;;;;;;;;4988746;28;20054;-72
2021/12/05 18:46:06;;;;;;;7.90;4.07;;;;;;;;;;4991559;28;20051;-73
2021/12/05 18:48:33;;;;;;;9.18;4.80;;;;;;;;;;4992275;28;20042;-72
2021/12/05 18:51:00;;;;;;;8.50;4.30;;;;;;;;;;4991735;28;20514;-71
2021/12/05 18:53:26;;;;;;;8.07;4.55;;;;;;;;;;4991232;28;20046;-71
2021/12/05 18:55:53;;;;;;;7.32;4.32;;;;;;;;;;4991331;28;20921;-71
2021/12/05 18:58:23;;;;;;;7.53;4.50;;;;;;;;;;4991371;28;20509;-70
2021/12/05 19:06:28;;;;;;;8.05;4.75;;;;;;;;;;4993733;28;20042;-71
2021/12/05 19:14:33;;;;;;;12.25;8.52;;;;;;;;;;4994767;28;20046;-73
2021/12/05 19:17:02;;;;;;;9.32;6.38;;;;;;;;;;4994453;28;20051;-74
2021/12/05 19:19:28;;;;;;;8.05;5.25;;;;;;;;;;4994333;28;20104;-72
2021/12/05 19:21:56;;;;;;;7.35;4.65;;;;;;;;;;4998163;28;20043;-73
2021/12/05 19:24:23;;;;;;;10.13;5.78;;;;;;;;;;4973919;28;20175;-72
2021/12/05 19:26:51;;;;;;;8.20;5.22;;;;;;;;;;4975211;28;20047;-73
2021/12/05 19:29:19;;;;;;;11.02;5.47;;;;;;;;;;4974960;28;20554;-73
2021/12/05 19:31:46;;;;;;;11.18;6.70;;;;;;;;;;4974954;28;20093;-73
2021/12/05 19:34:13;;;;;;;16.25;11.82;;;;;;;;;;4991805;28;20077;-72
2021/12/05 19:36:40;;;;;;;10.75;7.40;;;;;;;;;;4994256;28;20105;-73
2021/12/05 19:39:07;;;;;;;8.40;5.65;;;;;;;;;;4994547;28;20046;-70
2021/12/05 19:41:33;;;;;;;6.85;4.80;;;;;;;;;;4991794;28;20054;-73
2021/12/05 19:44:01;;;;;;;11.43;5.80;;;;;;;;;;4987107;28;20112;-72
2021/12/05 19:46:29;;;;;;;9.75;6.00;;;;;;;;;;4978121;28;20047;-72
2021/12/05 19:48:57;;;;;;;11.02;6.93;;;;;;;;;;4974069;28;20093;-71
2021/12/05 19:51:24;;;;;;;10.32;7.90;;;;;;;;;;4989655;28;20042;-71
2021/12/05 19:53:51;;;;;;;12.10;7.20;;;;;;;;;;4974530;28;20152;-73
2021/12/05 19:56:19;;;;;;;15.43;9.93;;;;;;;;;;4974239;28;20578;-73
2021/12/05 19:58:46;;;;;;;17.45;10.32;;;;;;;;;;4974794;28;20055;-72
2021/12/05 20:01:13;;;;;;;15.10;7.55;;;;;;;;;;4974477;28;20051;-73
2021/12/05 20:03:40;;;;;;;9.90;8.10;;;;;;;;;;4991635;28;20050;-72
2021/12/05 20:06:07;;;;;;;10.70;6.72;;;;;;;;;;4994154;28;20050;-72
2021/12/05 20:08:34;;;;;;;12.70;7.53;;;;;;;;;;4993758;28;20058;-74
2021/12/05 20:11:01;;;;;;;6.47;4.50;;;;;;;;;;4993795;28;20046;-72
2021/12/05 20:13:29;;;;;;;14.57;11.20;;;;;;;;;;4993917;28;20116;-72
2021/12/05 20:15:56;;;;;;;12.27;8.77;;;;;;;;;;4993514;28;20105;-74
2021/12/05 20:18:24;;;;;;;14.18;9.85;;;;;;;;;;4982918;28;20078;-72
2021/12/05 20:20:51;;;;;;;12.90;10.68;;;;;;;;;;4974437;28;20043;-73
2021/12/05 20:23:18;;;;;;;12.77;8.15;;;;;;;;;;4974160;28;20043;-73
2021/12/05 20:25:45;;;;;;;7.90;5.63;;;;;;;;;;4974254;28;20560;-72
2021/12/05 20:28:12;;;;;;;7.20;4.72;;;;;;;;;;4992645;28;20047;-72
2021/12/05 20:30:38;;;;;;;10.80;6.57;;;;;;;;;;4992599;28;20105;-72
2021/12/05 20:33:06;;;;;;;10.10;6.03;;;;;;;;;;4992822;28;20061;-72
2021/12/05 20:35:33;;;;;;;9.73;5.40;;;;;;;;;;4993132;28;20413;-70
2021/12/05 20:38:00;;;;;;;11.20;4.75;;;;;;;;;;4992552;28;20198;-73
2021/12/05 20:40:29;;;;;;;11.55;4.05;;;;;;;;;;4993232;28;20050;-71
2021/12/05 20:42:56;;;;;;;6.57;3.40;;;;;;;;;;4992022;28;20051;-72
2021/12/05 20:45:25;;;;;;;8.85;3.38;;;;;;;;;;4993733;28;20124;-72